LEWISTON (LEW)

Elevation: 1870' · TRINITY R basin · Operator: US Bureau of Reclamation

Provisional data, subject to change.
Query executed Wednesday at 2:36:43

Select a sensor type for a plot of data.
Note: Reservoir Flows are daily averages.

Earlier

Date RES ELE    STORAGE    RES CHG    OUTFLOW    INFLOW    EVAP    RIV REL    SPILL    DIS PWR   
 FEET   AF   AF   CFS   CFS   CFS   CFS   CFS   CFS  
11/08/2016 1901.82 14524 89 302 347 0 302 152 110
11/09/2016 1901.82 14524 0 311 313 2 311 161 110
11/10/2016 1901.78 14494 -30 311 296 0 303 153 110
11/11/2016 1901.72 14450 -44 314 293 1 304 154 110
11/12/2016 1901.52 14300 -150 319 243 0 304 154 110
11/13/2016 1901.35 14173 -127 312 250 2 302 152 110
11/14/2016 1901.10 13986 -187 331 238 1 321 171 110
11/15/2016 1900.90 13837 -149 563 488 0 311 161 110
11/16/2016 1900.90 13837 0 537 539 2 310 160 110
11/17/2016 1901.38 14195 358 425 605 0 313 163 110
11/18/2016 1901.32 14150 -45 544 522 1 314 164 110
11/19/2016 1901.37 14188 38 541 562 2 313 163 110
11/20/2016 1901.38 14195 7 708 713 1 312 162 110
11/21/2016 1901.22 14076 -119 682 625 3 313 163 110
11/22/2016 1901.30 14135 59 408 438 0 311 161 110
11/23/2016 1901.19 14053 -82 421 380 0 309 159 110
11/24/2016 1901.52 14300 247 697 823 1 307 157 110
11/25/2016 1901.53 14307 7 618 626 4 311 161 110
11/26/2016 1901.50 14285 -22 429 418 0 313 163 110
11/27/2016 1901.48 14270 -15 492 486 2 311 161 110
11/28/2016 1901.43 14233 -37 315 297 1 311 161 110
11/29/2016 1901.35 14173 -60 568 539 1 311 161 110
11/30/2016 1901.28 14120 -53 317 291 1 310 160 110
12/01/2016 1901.34 14165 45 344 368 1 310 160 110
12/02/2016 1901.05 13948 -217 332 223 0 311 161 46
12/03/2016 1900.73 13712 -236 316 198 1 307 157 0
12/04/2016 1901.06 13956 244 327 451 1 304 154 0
12/05/2016 1901.06 13956 0 313 313 0 305 155 0
12/06/2016 -- -- -- -- -- -- -- -- --
12/07/2016 -- -- -- -- -- -- -- -- --

Later | Latest

Warning! This data is preliminary and subject to revision.

Show LEW Map | Plot LEW Data | 1 Month LEW Data | Real-Time LEW Data | LEW Info